sensor_id;sensor_type;location;lat;lon;timestamp;temperature;humidity
12885;DHT22;6510;51.362;7.370;2022-12-07T00:01:28;3.50;99.90
12885;DHT22;6510;51.362;7.370;2022-12-07T00:03:56;3.50;99.90
12885;DHT22;6510;51.362;7.370;2022-12-07T00:06:26;3.50;99.90
12885;DHT22;6510;51.362;7.370;2022-12-07T00:08:51;3.60;99.90
12885;DHT22;6510;51.362;7.370;2022-12-07T00:11:19;3.50;99.90
12885;DHT22;6510;51.362;7.370;2022-12-07T00:13:45;3.50;99.90
12885;DHT22;6510;51.362;7.370;2022-12-07T00:16:13;3.60;99.90
12885;DHT22;6510;51.362;7.370;2022-12-07T00:18:40;3.60;99.90
12885;DHT22;6510;51.362;7.370;2022-12-07T00:21:17;3.60;99.90
12885;DHT22;6510;51.362;7.370;2022-12-07T00:23:44;3.60;99.90
12885;DHT22;6510;51.362;7.370;2022-12-07T00:31:37;3.60;99.90
12885;DHT22;6510;51.362;7.370;2022-12-07T00:34:06;3.60;99.90
12885;DHT22;6510;51.362;7.370;2022-12-07T00:36:32;3.60;99.90
12885;DHT22;6510;51.362;7.370;2022-12-07T00:38:59;3.60;99.90
12885;DHT22;6510;51.362;7.370;2022-12-07T00:41:27;3.60;99.90
12885;DHT22;6510;51.362;7.370;2022-12-07T00:43:52;3.60;99.90
12885;DHT22;6510;51.362;7.370;2022-12-07T00:46:19;3.60;99.90
12885;DHT22;6510;51.362;7.370;2022-12-07T00:48:46;3.60;99.90
12885;DHT22;6510;51.362;7.370;2022-12-07T00:51:13;3.70;99.90
12885;DHT22;6510;51.362;7.370;2022-12-07T00:53:40;3.60;99.90
12885;DHT22;6510;51.362;7.370;2022-12-07T00:56:11;3.70;99.90
12885;DHT22;6510;51.362;7.370;2022-12-07T00:58:37;3.70;99.90
12885;DHT22;6510;51.362;7.370;2022-12-07T01:01:04;3.70;99.90
12885;DHT22;6510;51.362;7.370;2022-12-07T01:03:30;3.70;99.90
12885;DHT22;6510;51.362;7.370;2022-12-07T01:05:56;3.70;99.90
12885;DHT22;6510;51.362;7.370;2022-12-07T01:08:23;3.70;99.90
12885;DHT22;6510;51.362;7.370;2022-12-07T01:10:49;3.80;99.90
12885;DHT22;6510;51.362;7.370;2022-12-07T01:13:15;3.70;99.90
12885;DHT22;6510;51.362;7.370;2022-12-07T01:15:42;3.70;99.90
12885;DHT22;6510;51.362;7.370;2022-12-07T01:18:08;3.70;99.90
12885;DHT22;6510;51.362;7.370;2022-12-07T01:20:34;3.70;99.90
12885;DHT22;6510;51.362;7.370;2022-12-07T01:23:00;3.80;99.90
12885;DHT22;6510;51.362;7.370;2022-12-07T01:25:25;3.80;99.90
12885;DHT22;6510;51.362;7.370;2022-12-07T01:27:51;3.80;99.90
12885;DHT22;6510;51.362;7.370;2022-12-07T01:30:17;3.80;99.90
12885;DHT22;6510;51.362;7.370;2022-12-07T01:32:42;3.80;99.90
12885;DHT22;6510;51.362;7.370;2022-12-07T01:35:08;3.80;99.90
12885;DHT22;6510;51.362;7.370;2022-12-07T01:37:35;3.80;99.90
12885;DHT22;6510;51.362;7.370;2022-12-07T01:40:02;3.80;99.90
12885;DHT22;6510;51.362;7.370;2022-12-07T01:42:28;3.80;99.90
12885;DHT22;6510;51.362;7.370;2022-12-07T01:47:58;3.80;99.90
12885;DHT22;6510;51.362;7.370;2022-12-07T01:50:26;3.80;99.90
12885;DHT22;6510;51.362;7.370;2022-12-07T01:52:54;3.80;99.90
12885;DHT22;6510;51.362;7.370;2022-12-07T01:55:21;3.80;99.90
12885;DHT22;6510;51.362;7.370;2022-12-07T01:57:50;3.80;99.90
12885;DHT22;6510;51.362;7.370;2022-12-07T02:00:18;3.80;99.90
12885;DHT22;6510;51.362;7.370;2022-12-07T02:03:01;3.80;99.90
12885;DHT22;6510;51.362;7.370;2022-12-07T02:05:29;3.80;99.90
12885;DHT22;6510;51.362;7.370;2022-12-07T02:07:56;3.80;99.90
12885;DHT22;6510;51.362;7.370;2022-12-07T02:10:25;3.80;99.90
12885;DHT22;6510;51.362;7.370;2022-12-07T02:13:09;3.80;99.90
12885;DHT22;6510;51.362;7.370;2022-12-07T02:29:25;3.80;99.90
12885;DHT22;6510;51.362;7.370;2022-12-07T02:35:04;3.80;99.90
12885;DHT22;6510;51.362;7.370;2022-12-07T02:40:29;3.70;99.90
12885;DHT22;6510;51.362;7.370;2022-12-07T02:43:45;3.80;99.90
12885;DHT22;6510;51.362;7.370;2022-12-07T02:45:46;3.70;99.90
12885;DHT22;6510;51.362;7.370;2022-12-07T02:48:16;3.70;99.90
12885;DHT22;6510;51.362;7.370;2022-12-07T02:50:48;3.70;99.90
12885;DHT22;6510;51.362;7.370;2022-12-07T03:07:23;3.70;99.90
12885;DHT22;6510;51.362;7.370;2022-12-07T03:12:31;3.70;99.90
12885;DHT22;6510;51.362;7.370;2022-12-07T03:15:18;3.70;99.90
12885;DHT22;6510;51.362;7.370;2022-12-07T03:17:47;3.70;99.90
12885;DHT22;6510;51.362;7.370;2022-12-07T03:20:17;3.70;99.90
12885;DHT22;6510;51.362;7.370;2022-12-07T03:22:45;3.70;99.90
12885;DHT22;6510;51.362;7.370;2022-12-07T03:25:14;3.70;99.90
12885;DHT22;6510;51.362;7.370;2022-12-07T03:30:20;3.70;99.90
12885;DHT22;6510;51.362;7.370;2022-12-07T03:33:25;3.70;99.90
12885;DHT22;6510;51.362;7.370;2022-12-07T03:36:20;3.60;99.90
12885;DHT22;6510;51.362;7.370;2022-12-07T03:38:53;3.60;99.90
12885;DHT22;6510;51.362;7.370;2022-12-07T03:41:25;3.50;99.90
12885;DHT22;6510;51.362;7.370;2022-12-07T03:43:54;3.60;99.90
12885;DHT22;6510;51.362;7.370;2022-12-07T03:57:01;3.50;99.90
12885;DHT22;6510;51.362;7.370;2022-12-07T03:59:28;3.50;99.90
12885;DHT22;6510;51.362;7.370;2022-12-07T04:02:01;3.50;99.90
12885;DHT22;6510;51.362;7.370;2022-12-07T04:04:27;3.50;99.90
12885;DHT22;6510;51.362;7.370;2022-12-07T04:06:53;3.50;99.90
12885;DHT22;6510;51.362;7.370;2022-12-07T04:09:19;3.50;99.90
12885;DHT22;6510;51.362;7.370;2022-12-07T04:11:45;3.40;99.90
12885;DHT22;6510;51.362;7.370;2022-12-07T04:14:11;3.40;99.90
12885;DHT22;6510;51.362;7.370;2022-12-07T04:16:50;3.50;99.90
12885;DHT22;6510;51.362;7.370;2022-12-07T04:19:17;3.40;99.90
12885;DHT22;6510;51.362;7.370;2022-12-07T04:21:43;3.40;99.90
12885;DHT22;6510;51.362;7.370;2022-12-07T04:24:09;3.40;99.90
12885;DHT22;6510;51.362;7.370;2022-12-07T04:26:35;3.50;99.90
12885;DHT22;6510;51.362;7.370;2022-12-07T04:29:00;3.40;99.90
12885;DHT22;6510;51.362;7.370;2022-12-07T04:31:26;3.50;99.90
12885;DHT22;6510;51.362;7.370;2022-12-07T04:33:52;3.40;99.90
12885;DHT22;6510;51.362;7.370;2022-12-07T04:36:17;3.40;99.90
12885;DHT22;6510;51.362;7.370;2022-12-07T04:38:45;3.40;99.90
12885;DHT22;6510;51.362;7.370;2022-12-07T04:41:10;3.40;99.90
12885;DHT22;6510;51.362;7.370;2022-12-07T04:43:36;3.40;99.90
12885;DHT22;6510;51.362;7.370;2022-12-07T04:46:02;3.40;99.90
12885;DHT22;6510;51.362;7.370;2022-12-07T04:48:28;3.30;99.90
12885;DHT22;6510;51.362;7.370;2022-12-07T04:50:54;3.40;99.90
12885;DHT22;6510;51.362;7.370;2022-12-07T04:53:20;3.30;99.90
12885;DHT22;6510;51.362;7.370;2022-12-07T04:55:46;3.30;99.90
12885;DHT22;6510;51.362;7.370;2022-12-07T04:58:12;3.30;99.90
12885;DHT22;6510;51.362;7.370;2022-12-07T05:00:38;3.30;99.90
12885;DHT22;6510;51.362;7.370;2022-12-07T05:03:04;3.40;99.90
12885;DHT22;6510;51.362;7.370;2022-12-07T05:05:30;3.40;99.90
12885;DHT22;6510;51.362;7.370;2022-12-07T05:07:55;3.40;99.90
12885;DHT22;6510;51.362;7.370;2022-12-07T05:10:21;3.40;99.90
12885;DHT22;6510;51.362;7.370;2022-12-07T05:12:47;3.40;99.90
12885;DHT22;6510;51.362;7.370;2022-12-07T05:15:14;3.40;99.90
12885;DHT22;6510;51.362;7.370;2022-12-07T05:17:40;3.30;99.90
12885;DHT22;6510;51.362;7.370;2022-12-07T05:20:06;3.30;99.90
12885;DHT22;6510;51.362;7.370;2022-12-07T05:22:32;3.30;99.90
12885;DHT22;6510;51.362;7.370;2022-12-07T05:24:58;3.30;99.90
12885;DHT22;6510;51.362;7.370;2022-12-07T05:27:23;3.30;99.90
12885;DHT22;6510;51.362;7.370;2022-12-07T05:29:50;3.30;99.90
12885;DHT22;6510;51.362;7.370;2022-12-07T05:32:15;3.20;99.90
12885;DHT22;6510;51.362;7.370;2022-12-07T05:34:41;3.20;99.90
12885;DHT22;6510;51.362;7.370;2022-12-07T05:37:07;3.20;99.90
12885;DHT22;6510;51.362;7.370;2022-12-07T05:39:32;3.30;99.90
12885;DHT22;6510;51.362;7.370;2022-12-07T05:41:58;3.20;99.90
12885;DHT22;6510;51.362;7.370;2022-12-07T05:44:44;3.20;99.90
12885;DHT22;6510;51.362;7.370;2022-12-07T05:47:11;3.20;99.90
12885;DHT22;6510;51.362;7.370;2022-12-07T05:49:37;3.20;99.90
12885;DHT22;6510;51.362;7.370;2022-12-07T05:52:03;3.20;99.90
12885;DHT22;6510;51.362;7.370;2022-12-07T05:54:29;3.20;99.90
12885;DHT22;6510;51.362;7.370;2022-12-07T05:56:54;3.20;99.90
12885;DHT22;6510;51.362;7.370;2022-12-07T05:59:20;3.20;99.90
12885;DHT22;6510;51.362;7.370;2022-12-07T06:01:57;3.10;99.90
12885;DHT22;6510;51.362;7.370;2022-12-07T06:04:25;3.10;99.90
12885;DHT22;6510;51.362;7.370;2022-12-07T06:06:51;3.10;99.90
12885;DHT22;6510;51.362;7.370;2022-12-07T06:09:19;3.20;99.90
12885;DHT22;6510;51.362;7.370;2022-12-07T06:11:44;3.20;99.90
12885;DHT22;6510;51.362;7.370;2022-12-07T06:14:29;3.10;99.90
12885;DHT22;6510;51.362;7.370;2022-12-07T06:16:54;3.10;99.90
12885;DHT22;6510;51.362;7.370;2022-12-07T06:19:20;3.10;99.90
12885;DHT22;6510;51.362;7.370;2022-12-07T06:21:46;3.10;99.90
12885;DHT22;6510;51.362;7.370;2022-12-07T06:24:13;3.10;99.90
12885;DHT22;6510;51.362;7.370;2022-12-07T06:26:39;3.10;99.90
12885;DHT22;6510;51.362;7.370;2022-12-07T06:29:05;3.10;99.90
12885;DHT22;6510;51.362;7.370;2022-12-07T06:31:31;3.10;99.90
12885;DHT22;6510;51.362;7.370;2022-12-07T06:34:01;3.10;99.90
12885;DHT22;6510;51.362;7.370;2022-12-07T06:36:27;3.10;99.90
12885;DHT22;6510;51.362;7.370;2022-12-07T06:38:53;3.10;99.90
12885;DHT22;6510;51.362;7.370;2022-12-07T06:41:19;3.10;99.90
12885;DHT22;6510;51.362;7.370;2022-12-07T06:43:44;3.10;99.90
12885;DHT22;6510;51.362;7.370;2022-12-07T06:46:10;3.10;99.90
12885;DHT22;6510;51.362;7.370;2022-12-07T06:48:35;3.10;99.90
12885;DHT22;6510;51.362;7.370;2022-12-07T06:51:01;3.10;99.90
12885;DHT22;6510;51.362;7.370;2022-12-07T06:53:27;3.10;99.90
12885;DHT22;6510;51.362;7.370;2022-12-07T06:55:52;3.00;99.90
12885;DHT22;6510;51.362;7.370;2022-12-07T06:58:18;3.00;99.90
12885;DHT22;6510;51.362;7.370;2022-12-07T07:00:44;3.00;99.90
12885;DHT22;6510;51.362;7.370;2022-12-07T07:03:10;3.00;99.90
12885;DHT22;6510;51.362;7.370;2022-12-07T07:05:38;3.00;99.90
12885;DHT22;6510;51.362;7.370;2022-12-07T07:08:07;3.00;99.90
12885;DHT22;6510;51.362;7.370;2022-12-07T07:10:32;3.00;99.90
12885;DHT22;6510;51.362;7.370;2022-12-07T07:12:58;2.90;99.90
12885;DHT22;6510;51.362;7.370;2022-12-07T07:15:24;2.90;99.90
12885;DHT22;6510;51.362;7.370;2022-12-07T07:17:49;3.00;99.90
12885;DHT22;6510;51.362;7.370;2022-12-07T07:20:15;2.90;99.90
12885;DHT22;6510;51.362;7.370;2022-12-07T07:22:40;2.90;99.90
12885;DHT22;6510;51.362;7.370;2022-12-07T07:25:06;2.90;99.90
12885;DHT22;6510;51.362;7.370;2022-12-07T07:27:32;2.90;99.90
12885;DHT22;6510;51.362;7.370;2022-12-07T07:29:57;2.90;99.90
12885;DHT22;6510;51.362;7.370;2022-12-07T07:32:23;2.90;99.90
12885;DHT22;6510;51.362;7.370;2022-12-07T07:34:49;2.90;99.90
12885;DHT22;6510;51.362;7.370;2022-12-07T07:37:14;2.90;99.90
12885;DHT22;6510;51.362;7.370;2022-12-07T07:39:40;2.90;99.90
12885;DHT22;6510;51.362;7.370;2022-12-07T07:42:05;2.90;99.90
12885;DHT22;6510;51.362;7.370;2022-12-07T07:44:33;2.80;99.90
12885;DHT22;6510;51.362;7.370;2022-12-07T07:46:59;2.90;99.90
12885;DHT22;6510;51.362;7.370;2022-12-07T07:49:24;2.90;99.90
12885;DHT22;6510;51.362;7.370;2022-12-07T07:51:50;2.80;99.90
12885;DHT22;6510;51.362;7.370;2022-12-07T07:54:16;2.80;99.90
12885;DHT22;6510;51.362;7.370;2022-12-07T07:56:41;2.90;99.90
12885;DHT22;6510;51.362;7.370;2022-12-07T07:59:07;2.80;99.90
12885;DHT22;6510;51.362;7.370;2022-12-07T08:01:33;2.80;99.90
12885;DHT22;6510;51.362;7.370;2022-12-07T08:03:59;2.90;99.90
12885;DHT22;6510;51.362;7.370;2022-12-07T08:06:25;2.90;99.90
12885;DHT22;6510;51.362;7.370;2022-12-07T08:08:51;2.90;99.90
12885;DHT22;6510;51.362;7.370;2022-12-07T08:11:17;3.00;99.90
12885;DHT22;6510;51.362;7.370;2022-12-07T08:13:45;3.00;99.90
12885;DHT22;6510;51.362;7.370;2022-12-07T08:16:12;3.00;99.90
12885;DHT22;6510;51.362;7.370;2022-12-07T08:18:39;3.00;99.90
12885;DHT22;6510;51.362;7.370;2022-12-07T08:21:06;3.10;99.90
12885;DHT22;6510;51.362;7.370;2022-12-07T08:23:32;3.20;99.90
12885;DHT22;6510;51.362;7.370;2022-12-07T08:26:07;3.20;99.90
12885;DHT22;6510;51.362;7.370;2022-12-07T08:28:33;3.20;99.90
12885;DHT22;6510;51.362;7.370;2022-12-07T08:31:04;3.10;99.90
12885;DHT22;6510;51.362;7.370;2022-12-07T08:33:30;3.20;99.90
12885;DHT22;6510;51.362;7.370;2022-12-07T08:36:04;3.30;99.90
12885;DHT22;6510;51.362;7.370;2022-12-07T08:38:30;3.30;99.90
12885;DHT22;6510;51.362;7.370;2022-12-07T08:40:57;3.30;99.90
12885;DHT22;6510;51.362;7.370;2022-12-07T08:43:23;3.20;99.90
12885;DHT22;6510;51.362;7.370;2022-12-07T08:48:25;3.20;99.90
12885;DHT22;6510;51.362;7.370;2022-12-07T08:50:51;3.20;99.90
12885;DHT22;6510;51.362;7.370;2022-12-07T08:53:17;3.20;99.90
12885;DHT22;6510;51.362;7.370;2022-12-07T08:55:45;3.20;99.90
12885;DHT22;6510;51.362;7.370;2022-12-07T08:58:12;3.20;99.90
12885;DHT22;6510;51.362;7.370;2022-12-07T09:00:37;3.30;99.90
12885;DHT22;6510;51.362;7.370;2022-12-07T09:03:03;3.40;99.90
12885;DHT22;6510;51.362;7.370;2022-12-07T09:05:32;3.40;99.90
12885;DHT22;6510;51.362;7.370;2022-12-07T09:08:00;3.40;99.90
12885;DHT22;6510;51.362;7.370;2022-12-07T09:10:27;3.40;99.90
12885;DHT22;6510;51.362;7.370;2022-12-07T09:12:53;3.50;99.90
12885;DHT22;6510;51.362;7.370;2022-12-07T09:15:18;3.60;99.90
12885;DHT22;6510;51.362;7.370;2022-12-07T09:17:44;3.60;99.90
12885;DHT22;6510;51.362;7.370;2022-12-07T09:20:10;3.60;99.90
12885;DHT22;6510;51.362;7.370;2022-12-07T09:22:36;3.60;99.90
12885;DHT22;6510;51.362;7.370;2022-12-07T09:25:02;3.60;99.90
12885;DHT22;6510;51.362;7.370;2022-12-07T09:27:28;3.60;99.90
12885;DHT22;6510;51.362;7.370;2022-12-07T09:29:54;3.60;99.90
12885;DHT22;6510;51.362;7.370;2022-12-07T09:32:19;3.60;99.90
12885;DHT22;6510;51.362;7.370;2022-12-07T09:34:45;3.60;99.90
12885;DHT22;6510;51.362;7.370;2022-12-07T09:37:11;3.60;99.90
12885;DHT22;6510;51.362;7.370;2022-12-07T09:39:40;3.60;99.90
12885;DHT22;6510;51.362;7.370;2022-12-07T09:42:07;3.60;99.90
12885;DHT22;6510;51.362;7.370;2022-12-07T09:44:33;3.70;99.90
12885;DHT22;6510;51.362;7.370;2022-12-07T09:47:00;3.80;99.90
12885;DHT22;6510;51.362;7.370;2022-12-07T09:49:29;3.90;99.90
12885;DHT22;6510;51.362;7.370;2022-12-07T09:52:47;3.90;99.90
12885;DHT22;6510;51.362;7.370;2022-12-07T09:54:49;3.90;99.90
12885;DHT22;6510;51.362;7.370;2022-12-07T09:57:16;4.00;99.90
12885;DHT22;6510;51.362;7.370;2022-12-07T09:59:42;4.00;99.90
12885;DHT22;6510;51.362;7.370;2022-12-07T10:02:35;3.90;99.90
12885;DHT22;6510;51.362;7.370;2022-12-07T10:05:07;4.10;99.90
12885;DHT22;6510;51.362;7.370;2022-12-07T10:07:35;4.10;99.90
12885;DHT22;6510;51.362;7.370;2022-12-07T10:10:03;4.00;99.90
12885;DHT22;6510;51.362;7.370;2022-12-07T10:12:29;4.10;99.90
12885;DHT22;6510;51.362;7.370;2022-12-07T10:15:04;4.00;99.90
12885;DHT22;6510;51.362;7.370;2022-12-07T10:22:38;4.10;99.90
12885;DHT22;6510;51.362;7.370;2022-12-07T10:25:20;4.10;99.90
12885;DHT22;6510;51.362;7.370;2022-12-07T10:30:33;4.40;99.90
12885;DHT22;6510;51.362;7.370;2022-12-07T10:32:59;4.40;99.90
12885;DHT22;6510;51.362;7.370;2022-12-07T10:35:28;4.40;99.90
12885;DHT22;6510;51.362;7.370;2022-12-07T10:37:56;4.40;99.90
12885;DHT22;6510;51.362;7.370;2022-12-07T10:40:35;5.50;99.90
12885;DHT22;6510;51.362;7.370;2022-12-07T10:46:15;4.90;99.90
12885;DHT22;6510;51.362;7.370;2022-12-07T10:52:07;4.80;99.90
12885;DHT22;6510;51.362;7.370;2022-12-07T11:11:09;5.00;99.90
12885;DHT22;6510;51.362;7.370;2022-12-07T11:13:47;4.80;99.90
12885;DHT22;6510;51.362;7.370;2022-12-07T11:16:21;4.80;99.90
12885;DHT22;6510;51.362;7.370;2022-12-07T11:19:00;4.70;99.90
12885;DHT22;6510;51.362;7.370;2022-12-07T11:21:48;4.70;99.90
12885;DHT22;6510;51.362;7.370;2022-12-07T11:24:33;4.60;99.90
12885;DHT22;6510;51.362;7.370;2022-12-07T11:27:25;4.60;99.90
12885;DHT22;6510;51.362;7.370;2022-12-07T11:30:18;4.50;99.90
12885;DHT22;6510;51.362;7.370;2022-12-07T11:33:01;4.50;99.90
12885;DHT22;6510;51.362;7.370;2022-12-07T11:38:34;4.50;99.90
12885;DHT22;6510;51.362;7.370;2022-12-07T11:41:05;4.60;99.90
12885;DHT22;6510;51.362;7.370;2022-12-07T11:44:05;4.50;99.90
12885;DHT22;6510;51.362;7.370;2022-12-07T11:46:49;4.50;99.90
12885;DHT22;6510;51.362;7.370;2022-12-07T11:52:02;4.60;99.90
12885;DHT22;6510;51.362;7.370;2022-12-07T11:54:34;4.60;99.90
12885;DHT22;6510;51.362;7.370;2022-12-07T11:57:04;4.60;99.90
12885;DHT22;6510;51.362;7.370;2022-12-07T11:59:38;4.50;99.90
12885;DHT22;6510;51.362;7.370;2022-12-07T12:02:37;4.60;99.90
12885;DHT22;6510;51.362;7.370;2022-12-07T12:07:43;4.50;99.90
12885;DHT22;6510;51.362;7.370;2022-12-07T12:10:19;4.50;99.90
12885;DHT22;6510;51.362;7.370;2022-12-07T12:13:03;4.50;99.90
12885;DHT22;6510;51.362;7.370;2022-12-07T12:15:47;4.50;99.90
12885;DHT22;6510;51.362;7.370;2022-12-07T12:18:50;4.50;99.90
12885;DHT22;6510;51.362;7.370;2022-12-07T12:21:17;4.30;99.90
12885;DHT22;6510;51.362;7.370;2022-12-07T12:23:57;4.30;99.90
12885;DHT22;6510;51.362;7.370;2022-12-07T12:26:27;4.20;99.90
12885;DHT22;6510;51.362;7.370;2022-12-07T12:29:31;4.30;99.90
12885;DHT22;6510;51.362;7.370;2022-12-07T12:37:49;4.40;99.90
12885;DHT22;6510;51.362;7.370;2022-12-07T12:42:57;4.40;99.90
12885;DHT22;6510;51.362;7.370;2022-12-07T12:50:25;4.40;99.90
12885;DHT22;6510;51.362;7.370;2022-12-07T12:55:59;4.30;99.90
12885;DHT22;6510;51.362;7.370;2022-12-07T12:58:35;4.30;99.90
12885;DHT22;6510;51.362;7.370;2022-12-07T13:04:01;4.30;99.90
12885;DHT22;6510;51.362;7.370;2022-12-07T13:08:56;4.40;99.90
12885;DHT22;6510;51.362;7.370;2022-12-07T13:11:33;4.40;99.90
12885;DHT22;6510;51.362;7.370;2022-12-07T13:17:03;4.50;99.90
12885;DHT22;6510;51.362;7.370;2022-12-07T13:27:41;4.60;99.90
12885;DHT22;6510;51.362;7.370;2022-12-07T13:30:20;4.60;99.90
12885;DHT22;6510;51.362;7.370;2022-12-07T13:32:54;4.50;99.90
12885;DHT22;6510;51.362;7.370;2022-12-07T13:35:36;4.50;99.90
12885;DHT22;6510;51.362;7.370;2022-12-07T13:38:15;4.40;99.90
12885;DHT22;6510;51.362;7.370;2022-12-07T13:40:42;4.40;99.90
12885;DHT22;6510;51.362;7.370;2022-12-07T13:43:15;4.40;99.90
12885;DHT22;6510;51.362;7.370;2022-12-07T13:45:42;4.40;99.90
12885;DHT22;6510;51.362;7.370;2022-12-07T13:48:32;4.40;99.90
12885;DHT22;6510;51.362;7.370;2022-12-07T13:51:00;4.50;99.90
12885;DHT22;6510;51.362;7.370;2022-12-07T13:53:27;4.40;99.90
12885;DHT22;6510;51.362;7.370;2022-12-07T13:56:00;4.40;99.90
12885;DHT22;6510;51.362;7.370;2022-12-07T13:58:29;4.40;99.90
12885;DHT22;6510;51.362;7.370;2022-12-07T14:00:55;4.30;99.90
12885;DHT22;6510;51.362;7.370;2022-12-07T14:03:31;4.20;99.90
12885;DHT22;6510;51.362;7.370;2022-12-07T14:08:43;4.10;99.90
12885;DHT22;6510;51.362;7.370;2022-12-07T14:11:20;4.10;99.90
12885;DHT22;6510;51.362;7.370;2022-12-07T14:14:02;4.20;99.90
12885;DHT22;6510;51.362;7.370;2022-12-07T14:16:32;4.30;99.90
12885;DHT22;6510;51.362;7.370;2022-12-07T14:19:00;4.40;99.90
12885;DHT22;6510;51.362;7.370;2022-12-07T14:21:28;4.80;99.90
12885;DHT22;6510;51.362;7.370;2022-12-07T14:24:17;4.70;99.90
12885;DHT22;6510;51.362;7.370;2022-12-07T14:26:46;4.60;99.90
12885;DHT22;6510;51.362;7.370;2022-12-07T14:31:50;4.40;99.90
12885;DHT22;6510;51.362;7.370;2022-12-07T14:34:16;4.30;99.90
12885;DHT22;6510;51.362;7.370;2022-12-07T14:36:42;4.30;99.90
12885;DHT22;6510;51.362;7.370;2022-12-07T14:39:10;4.20;99.90
12885;DHT22;6510;51.362;7.370;2022-12-07T14:41:36;4.20;99.90
12885;DHT22;6510;51.362;7.370;2022-12-07T14:44:17;4.10;99.90
12885;DHT22;6510;51.362;7.370;2022-12-07T14:46:43;4.10;99.90
12885;DHT22;6510;51.362;7.370;2022-12-07T14:49:08;4.00;99.90
12885;DHT22;6510;51.362;7.370;2022-12-07T14:51:37;3.90;99.90
12885;DHT22;6510;51.362;7.370;2022-12-07T14:54:05;3.80;99.90
12885;DHT22;6510;51.362;7.370;2022-12-07T14:56:31;3.70;99.90
12885;DHT22;6510;51.362;7.370;2022-12-07T14:58:56;3.60;99.90
12885;DHT22;6510;51.362;7.370;2022-12-07T15:01:22;3.50;99.90
12885;DHT22;6510;51.362;7.370;2022-12-07T15:03:48;3.40;99.90
12885;DHT22;6510;51.362;7.370;2022-12-07T15:06:16;3.40;99.90
12885;DHT22;6510;51.362;7.370;2022-12-07T15:08:42;3.20;99.90
12885;DHT22;6510;51.362;7.370;2022-12-07T15:11:19;3.20;99.90
12885;DHT22;6510;51.362;7.370;2022-12-07T15:13:47;3.10;99.90
12885;DHT22;6510;51.362;7.370;2022-12-07T15:16:31;3.00;99.90
12885;DHT22;6510;51.362;7.370;2022-12-07T15:18:57;3.00;99.90
12885;DHT22;6510;51.362;7.370;2022-12-07T15:21:22;2.90;99.90
12885;DHT22;6510;51.362;7.370;2022-12-07T15:23:48;2.80;99.90
12885;DHT22;6510;51.362;7.370;2022-12-07T15:26:14;2.80;99.90
12885;DHT22;6510;51.362;7.370;2022-12-07T15:28:41;2.70;99.90
12885;DHT22;6510;51.362;7.370;2022-12-07T15:31:14;2.70;99.90
12885;DHT22;6510;51.362;7.370;2022-12-07T15:33:41;2.70;99.90
12885;DHT22;6510;51.362;7.370;2022-12-07T15:36:07;2.70;99.90
12885;DHT22;6510;51.362;7.370;2022-12-07T15:38:32;2.70;99.90
12885;DHT22;6510;51.362;7.370;2022-12-07T15:40:58;2.70;99.90
12885;DHT22;6510;51.362;7.370;2022-12-07T15:43:24;2.70;99.90
12885;DHT22;6510;51.362;7.370;2022-12-07T15:46:08;2.70;99.90
12885;DHT22;6510;51.362;7.370;2022-12-07T15:48:34;2.70;99.90
12885;DHT22;6510;51.362;7.370;2022-12-07T15:51:04;2.70;99.90
12885;DHT22;6510;51.362;7.370;2022-12-07T15:53:30;2.70;99.90
12885;DHT22;6510;51.362;7.370;2022-12-07T15:55:56;2.70;99.90
12885;DHT22;6510;51.362;7.370;2022-12-07T15:58:22;2.70;99.90
12885;DHT22;6510;51.362;7.370;2022-12-07T16:00:47;2.60;99.90
12885;DHT22;6510;51.362;7.370;2022-12-07T16:03:14;2.60;99.90
12885;DHT22;6510;51.362;7.370;2022-12-07T16:05:39;2.60;99.90
12885;DHT22;6510;51.362;7.370;2022-12-07T16:08:05;2.60;99.90
12885;DHT22;6510;51.362;7.370;2022-12-07T16:10:31;2.60;99.90
12885;DHT22;6510;51.362;7.370;2022-12-07T16:12:56;2.60;99.90
12885;DHT22;6510;51.362;7.370;2022-12-07T16:15:22;2.70;99.90
12885;DHT22;6510;51.362;7.370;2022-12-07T16:17:50;2.70;99.90
12885;DHT22;6510;51.362;7.370;2022-12-07T16:20:15;2.70;99.90
12885;DHT22;6510;51.362;7.370;2022-12-07T16:22:41;2.70;99.90
12885;DHT22;6510;51.362;7.370;2022-12-07T16:25:07;2.80;99.90
12885;DHT22;6510;51.362;7.370;2022-12-07T16:27:32;2.80;99.90
12885;DHT22;6510;51.362;7.370;2022-12-07T16:29:58;2.80;99.90
12885;DHT22;6510;51.362;7.370;2022-12-07T16:32:24;2.80;99.90
12885;DHT22;6510;51.362;7.370;2022-12-07T16:34:49;2.80;99.90
12885;DHT22;6510;51.362;7.370;2022-12-07T16:37:15;2.90;99.90
12885;DHT22;6510;51.362;7.370;2022-12-07T16:39:41;2.90;99.90
12885;DHT22;6510;51.362;7.370;2022-12-07T16:42:06;2.90;99.90
12885;DHT22;6510;51.362;7.370;2022-12-07T16:44:32;3.00;99.90
12885;DHT22;6510;51.362;7.370;2022-12-07T16:46:57;2.90;99.90
12885;DHT22;6510;51.362;7.370;2022-12-07T16:49:23;3.00;99.90
12885;DHT22;6510;51.362;7.370;2022-12-07T16:51:50;3.00;99.90
12885;DHT22;6510;51.362;7.370;2022-12-07T16:54:15;3.00;99.90
12885;DHT22;6510;51.362;7.370;2022-12-07T16:56:41;3.00;99.90
12885;DHT22;6510;51.362;7.370;2022-12-07T16:59:07;3.00;99.90
12885;DHT22;6510;51.362;7.370;2022-12-07T17:01:33;3.10;99.90
12885;DHT22;6510;51.362;7.370;2022-12-07T17:04:00;3.10;99.90
12885;DHT22;6510;51.362;7.370;2022-12-07T17:06:27;3.20;99.90
12885;DHT22;6510;51.362;7.370;2022-12-07T17:08:54;3.10;99.90
12885;DHT22;6510;51.362;7.370;2022-12-07T17:11:23;3.10;99.90
12885;DHT22;6510;51.362;7.370;2022-12-07T17:13:50;3.20;99.90
12885;DHT22;6510;51.362;7.370;2022-12-07T17:16:34;3.20;99.90
12885;DHT22;6510;51.362;7.370;2022-12-07T17:19:04;3.20;99.90
12885;DHT22;6510;51.362;7.370;2022-12-07T17:21:30;3.10;99.90
12885;DHT22;6510;51.362;7.370;2022-12-07T17:23:59;3.20;99.90
12885;DHT22;6510;51.362;7.370;2022-12-07T17:26:26;3.20;99.90
12885;DHT22;6510;51.362;7.370;2022-12-07T17:32:15;3.20;99.90
12885;DHT22;6510;51.362;7.370;2022-12-07T17:34:40;3.20;99.90
12885;DHT22;6510;51.362;7.370;2022-12-07T17:37:06;3.20;99.90
12885;DHT22;6510;51.362;7.370;2022-12-07T17:39:32;3.20;99.90
12885;DHT22;6510;51.362;7.370;2022-12-07T17:41:57;3.10;99.90
12885;DHT22;6510;51.362;7.370;2022-12-07T17:44:41;3.10;99.90
12885;DHT22;6510;51.362;7.370;2022-12-07T17:47:08;3.20;99.90
12885;DHT22;6510;51.362;7.370;2022-12-07T17:49:35;3.20;99.90
12885;DHT22;6510;51.362;7.370;2022-12-07T17:52:01;3.20;99.90
12885;DHT22;6510;51.362;7.370;2022-12-07T17:54:45;3.20;99.90
12885;DHT22;6510;51.362;7.370;2022-12-07T17:57:11;3.20;99.90
12885;DHT22;6510;51.362;7.370;2022-12-07T17:59:37;3.20;99.90
12885;DHT22;6510;51.362;7.370;2022-12-07T18:02:03;3.20;99.90
12885;DHT22;6510;51.362;7.370;2022-12-07T18:04:29;3.10;99.90
12885;DHT22;6510;51.362;7.370;2022-12-07T18:06:54;3.10;99.90
12885;DHT22;6510;51.362;7.370;2022-12-07T18:09:20;3.10;99.90
12885;DHT22;6510;51.362;7.370;2022-12-07T18:11:47;3.20;99.90
12885;DHT22;6510;51.362;7.370;2022-12-07T18:14:12;3.20;99.90
12885;DHT22;6510;51.362;7.370;2022-12-07T18:16:38;3.20;99.90
12885;DHT22;6510;51.362;7.370;2022-12-07T18:19:05;3.20;99.90
12885;DHT22;6510;51.362;7.370;2022-12-07T18:21:32;3.20;99.90
12885;DHT22;6510;51.362;7.370;2022-12-07T18:24:03;3.20;99.90
12885;DHT22;6510;51.362;7.370;2022-12-07T18:26:30;3.20;99.90
12885;DHT22;6510;51.362;7.370;2022-12-07T18:28:58;3.20;99.90
12885;DHT22;6510;51.362;7.370;2022-12-07T18:31:24;3.20;99.90
12885;DHT22;6510;51.362;7.370;2022-12-07T18:33:49;3.10;99.90
12885;DHT22;6510;51.362;7.370;2022-12-07T18:36:16;3.10;99.90